sensor_id;sensor_type;location;lat;lon;timestamp;P1;durP1;ratioP1;P2;durP2;ratioP2
31660;SDS011;18267;52.234;7.444;2023-11-21T00:01:35;21.40;;;9.60;;
31660;SDS011;18267;52.234;7.444;2023-11-21T00:04:01;20.65;;;9.60;;
31660;SDS011;18267;52.234;7.444;2023-11-21T00:06:27;26.27;;;10.15;;
31660;SDS011;18267;52.234;7.444;2023-11-21T00:08:52;27.33;;;9.98;;
31660;SDS011;18267;52.234;7.444;2023-11-21T00:11:18;26.35;;;10.77;;
31660;SDS011;18267;52.234;7.444;2023-11-21T00:13:43;20.92;;;10.00;;
31660;SDS011;18267;52.234;7.444;2023-11-21T00:16:09;23.20;;;10.38;;
31660;SDS011;18267;52.234;7.444;2023-11-21T00:18:34;19.88;;;10.73;;
31660;SDS011;18267;52.234;7.444;2023-11-21T00:21:00;37.28;;;10.30;;
31660;SDS011;18267;52.234;7.444;2023-11-21T00:23:26;25.02;;;10.95;;
31660;SDS011;18267;52.234;7.444;2023-11-21T00:25:51;30.10;;;11.30;;
31660;SDS011;18267;52.234;7.444;2023-11-21T00:28:17;30.98;;;11.80;;
31660;SDS011;18267;52.234;7.444;2023-11-21T00:30:43;35.70;;;11.55;;
31660;SDS011;18267;52.234;7.444;2023-11-21T00:33:08;30.05;;;12.07;;
31660;SDS011;18267;52.234;7.444;2023-11-21T00:35:34;31.40;;;12.13;;
31660;SDS011;18267;52.234;7.444;2023-11-21T00:38:00;36.85;;;12.15;;
31660;SDS011;18267;52.234;7.444;2023-11-21T00:40:25;29.77;;;12.25;;
31660;SDS011;18267;52.234;7.444;2023-11-21T00:42:51;34.45;;;11.88;;
31660;SDS011;18267;52.234;7.444;2023-11-21T00:45:16;35.83;;;12.90;;
31660;SDS011;18267;52.234;7.444;2023-11-21T00:47:42;38.22;;;12.35;;
31660;SDS011;18267;52.234;7.444;2023-11-21T00:50:08;35.78;;;12.95;;
31660;SDS011;18267;52.234;7.444;2023-11-21T00:52:34;36.58;;;13.35;;
31660;SDS011;18267;52.234;7.444;2023-11-21T00:55:01;29.42;;;12.25;;
31660;SDS011;18267;52.234;7.444;2023-11-21T00:57:28;30.35;;;12.48;;
31660;SDS011;18267;52.234;7.444;2023-11-21T00:59:53;31.48;;;12.85;;
31660;SDS011;18267;52.234;7.444;2023-11-21T01:02:19;47.70;;;14.13;;
31660;SDS011;18267;52.234;7.444;2023-11-21T01:04:45;31.90;;;12.57;;
31660;SDS011;18267;52.234;7.444;2023-11-21T01:07:10;32.47;;;12.23;;
31660;SDS011;18267;52.234;7.444;2023-11-21T01:09:36;28.90;;;11.95;;
31660;SDS011;18267;52.234;7.444;2023-11-21T01:12:02;45.90;;;13.57;;
31660;SDS011;18267;52.234;7.444;2023-11-21T01:14:27;36.50;;;12.52;;
31660;SDS011;18267;52.234;7.444;2023-11-21T01:16:53;43.65;;;12.30;;
31660;SDS011;18267;52.234;7.444;2023-11-21T01:19:19;45.88;;;12.57;;
31660;SDS011;18267;52.234;7.444;2023-11-21T01:21:44;41.25;;;12.88;;
31660;SDS011;18267;52.234;7.444;2023-11-21T01:24:10;31.35;;;12.65;;
31660;SDS011;18267;52.234;7.444;2023-11-21T01:26:35;34.88;;;12.00;;
31660;SDS011;18267;52.234;7.444;2023-11-21T01:29:01;32.97;;;12.60;;
31660;SDS011;18267;52.234;7.444;2023-11-21T01:31:26;43.60;;;13.05;;
31660;SDS011;18267;52.234;7.444;2023-11-21T01:33:54;33.60;;;12.10;;
31660;SDS011;18267;52.234;7.444;2023-11-21T01:36:20;38.63;;;12.73;;
31660;SDS011;18267;52.234;7.444;2023-11-21T01:38:46;34.17;;;12.48;;
31660;SDS011;18267;52.234;7.444;2023-11-21T01:41:13;35.95;;;12.38;;
31660;SDS011;18267;52.234;7.444;2023-11-21T01:43:39;34.30;;;12.85;;
31660;SDS011;18267;52.234;7.444;2023-11-21T01:46:05;36.80;;;11.05;;
31660;SDS011;18267;52.234;7.444;2023-11-21T01:48:31;29.38;;;11.27;;
31660;SDS011;18267;52.234;7.444;2023-11-21T01:50:57;34.25;;;11.43;;
31660;SDS011;18267;52.234;7.444;2023-11-21T01:53:24;31.30;;;11.05;;
31660;SDS011;18267;52.234;7.444;2023-11-21T01:55:51;44.90;;;13.30;;
31660;SDS011;18267;52.234;7.444;2023-11-21T01:58:18;28.17;;;11.55;;
31660;SDS011;18267;52.234;7.444;2023-11-21T02:00:45;31.88;;;11.80;;
31660;SDS011;18267;52.234;7.444;2023-11-21T02:03:10;37.30;;;12.68;;
31660;SDS011;18267;52.234;7.444;2023-11-21T02:05:37;35.83;;;12.98;;
31660;SDS011;18267;52.234;7.444;2023-11-21T02:08:02;37.00;;;12.05;;
31660;SDS011;18267;52.234;7.444;2023-11-21T02:10:29;34.00;;;12.85;;
31660;SDS011;18267;52.234;7.444;2023-11-21T02:12:56;40.30;;;13.57;;
31660;SDS011;18267;52.234;7.444;2023-11-21T02:15:21;37.58;;;12.75;;
31660;SDS011;18267;52.234;7.444;2023-11-21T02:17:48;38.85;;;11.80;;
31660;SDS011;18267;52.234;7.444;2023-11-21T02:20:18;32.70;;;11.65;;
31660;SDS011;18267;52.234;7.444;2023-11-21T02:22:51;38.75;;;11.60;;
31660;SDS011;18267;52.234;7.444;2023-11-21T02:25:24;36.58;;;11.73;;
31660;SDS011;18267;52.234;7.444;2023-11-21T02:27:52;30.95;;;11.55;;
31660;SDS011;18267;52.234;7.444;2023-11-21T02:30:19;29.80;;;10.98;;
31660;SDS011;18267;52.234;7.444;2023-11-21T02:32:46;39.58;;;10.80;;
31660;SDS011;18267;52.234;7.444;2023-11-21T02:35:13;33.95;;;13.02;;
31660;SDS011;18267;52.234;7.444;2023-11-21T02:37:38;33.28;;;12.40;;
31660;SDS011;18267;52.234;7.444;2023-11-21T02:40:06;38.50;;;12.30;;
31660;SDS011;18267;52.234;7.444;2023-11-21T02:42:34;34.83;;;11.60;;
31660;SDS011;18267;52.234;7.444;2023-11-21T02:45:00;33.75;;;11.75;;
31660;SDS011;18267;52.234;7.444;2023-11-21T02:47:25;44.63;;;12.60;;
31660;SDS011;18267;52.234;7.444;2023-11-21T02:49:51;41.17;;;11.20;;
31660;SDS011;18267;52.234;7.444;2023-11-21T02:52:17;33.67;;;12.45;;
31660;SDS011;18267;52.234;7.444;2023-11-21T02:54:44;39.95;;;12.52;;
31660;SDS011;18267;52.234;7.444;2023-11-21T02:57:10;33.22;;;11.90;;
31660;SDS011;18267;52.234;7.444;2023-11-21T02:59:35;31.58;;;11.07;;
31660;SDS011;18267;52.234;7.444;2023-11-21T03:02:01;36.55;;;11.18;;
31660;SDS011;18267;52.234;7.444;2023-11-21T03:04:26;36.63;;;12.27;;
31660;SDS011;18267;52.234;7.444;2023-11-21T03:06:52;30.73;;;11.40;;
31660;SDS011;18267;52.234;7.444;2023-11-21T03:09:17;42.83;;;12.45;;
31660;SDS011;18267;52.234;7.444;2023-11-21T03:11:43;34.38;;;11.40;;
31660;SDS011;18267;52.234;7.444;2023-11-21T03:14:08;29.02;;;9.20;;
31660;SDS011;18267;52.234;7.444;2023-11-21T03:16:35;32.70;;;9.45;;
31660;SDS011;18267;52.234;7.444;2023-11-21T03:19:03;32.50;;;11.45;;
31660;SDS011;18267;52.234;7.444;2023-11-21T03:21:30;38.35;;;12.18;;
31660;SDS011;18267;52.234;7.444;2023-11-21T03:23:55;33.80;;;11.43;;
31660;SDS011;18267;52.234;7.444;2023-11-21T03:26:21;30.35;;;10.40;;
31660;SDS011;18267;52.234;7.444;2023-11-21T03:28:46;34.53;;;10.93;;
31660;SDS011;18267;52.234;7.444;2023-11-21T03:31:12;30.80;;;10.70;;
31660;SDS011;18267;52.234;7.444;2023-11-21T03:33:37;36.92;;;10.85;;
31660;SDS011;18267;52.234;7.444;2023-11-21T03:36:03;36.55;;;10.85;;
31660;SDS011;18267;52.234;7.444;2023-11-21T03:38:29;32.40;;;10.75;;
31660;SDS011;18267;52.234;7.444;2023-11-21T03:40:54;42.42;;;12.98;;
31660;SDS011;18267;52.234;7.444;2023-11-21T03:43:20;43.05;;;12.23;;
31660;SDS011;18267;52.234;7.444;2023-11-21T03:45:45;33.75;;;12.20;;
31660;SDS011;18267;52.234;7.444;2023-11-21T03:48:11;33.63;;;11.68;;
31660;SDS011;18267;52.234;7.444;2023-11-21T03:50:38;41.88;;;12.55;;
31660;SDS011;18267;52.234;7.444;2023-11-21T03:53:03;36.10;;;12.05;;
31660;SDS011;18267;52.234;7.444;2023-11-21T03:55:29;40.22;;;12.60;;
31660;SDS011;18267;52.234;7.444;2023-11-21T03:57:56;40.42;;;11.07;;
31660;SDS011;18267;52.234;7.444;2023-11-21T04:00:22;30.75;;;12.10;;
31660;SDS011;18267;52.234;7.444;2023-11-21T04:02:48;33.47;;;11.85;;
31660;SDS011;18267;52.234;7.444;2023-11-21T04:05:15;41.15;;;13.07;;
31660;SDS011;18267;52.234;7.444;2023-11-21T04:07:41;32.05;;;11.48;;
31660;SDS011;18267;52.234;7.444;2023-11-21T04:10:07;36.05;;;12.50;;
31660;SDS011;18267;52.234;7.444;2023-11-21T04:12:34;37.63;;;13.57;;
31660;SDS011;18267;52.234;7.444;2023-11-21T04:15:00;44.17;;;12.38;;
31660;SDS011;18267;52.234;7.444;2023-11-21T04:17:26;41.65;;;12.52;;
31660;SDS011;18267;52.234;7.444;2023-11-21T04:19:51;42.47;;;12.50;;
31660;SDS011;18267;52.234;7.444;2023-11-21T04:22:17;38.33;;;13.35;;
31660;SDS011;18267;52.234;7.444;2023-11-21T04:24:42;32.15;;;11.45;;
31660;SDS011;18267;52.234;7.444;2023-11-21T04:27:08;35.63;;;11.80;;
31660;SDS011;18267;52.234;7.444;2023-11-21T04:29:33;30.90;;;11.93;;
31660;SDS011;18267;52.234;7.444;2023-11-21T04:31:59;34.70;;;11.13;;
31660;SDS011;18267;52.234;7.444;2023-11-21T04:34:26;34.80;;;12.73;;
31660;SDS011;18267;52.234;7.444;2023-11-21T04:36:51;41.15;;;12.65;;
31660;SDS011;18267;52.234;7.444;2023-11-21T04:39:17;39.53;;;12.32;;
31660;SDS011;18267;52.234;7.444;2023-11-21T04:41:42;36.20;;;12.50;;
31660;SDS011;18267;52.234;7.444;2023-11-21T04:44:08;30.80;;;12.68;;
31660;SDS011;18267;52.234;7.444;2023-11-21T04:46:34;36.90;;;12.07;;
31660;SDS011;18267;52.234;7.444;2023-11-21T04:48:59;38.78;;;13.68;;
31660;SDS011;18267;52.234;7.444;2023-11-21T04:51:25;41.10;;;12.95;;
31660;SDS011;18267;52.234;7.444;2023-11-21T04:53:50;36.22;;;12.88;;
31660;SDS011;18267;52.234;7.444;2023-11-21T04:56:16;42.40;;;13.65;;
31660;SDS011;18267;52.234;7.444;2023-11-21T04:58:41;40.08;;;13.98;;
31660;SDS011;18267;52.234;7.444;2023-11-21T05:01:07;40.22;;;13.05;;
31660;SDS011;18267;52.234;7.444;2023-11-21T05:03:33;39.45;;;12.93;;
31660;SDS011;18267;52.234;7.444;2023-11-21T05:06:02;35.47;;;13.07;;
31660;SDS011;18267;52.234;7.444;2023-11-21T05:08:28;41.20;;;13.05;;
31660;SDS011;18267;52.234;7.444;2023-11-21T05:10:54;41.28;;;14.27;;
31660;SDS011;18267;52.234;7.444;2023-11-21T05:13:20;36.08;;;12.52;;
31660;SDS011;18267;52.234;7.444;2023-11-21T05:15:45;34.35;;;12.68;;
31660;SDS011;18267;52.234;7.444;2023-11-21T05:18:11;45.15;;;13.95;;
31660;SDS011;18267;52.234;7.444;2023-11-21T05:20:38;43.72;;;13.77;;
31660;SDS011;18267;52.234;7.444;2023-11-21T05:23:05;42.47;;;14.23;;
31660;SDS011;18267;52.234;7.444;2023-11-21T05:25:31;42.05;;;13.75;;
31660;SDS011;18267;52.234;7.444;2023-11-21T05:27:57;42.58;;;15.07;;
31660;SDS011;18267;52.234;7.444;2023-11-21T05:30:26;44.65;;;15.75;;
31660;SDS011;18267;52.234;7.444;2023-11-21T05:32:51;38.15;;;12.73;;
31660;SDS011;18267;52.234;7.444;2023-11-21T05:35:18;36.10;;;12.70;;
31660;SDS011;18267;52.234;7.444;2023-11-21T05:37:44;37.67;;;14.20;;
31660;SDS011;18267;52.234;7.444;2023-11-21T05:40:10;41.13;;;13.05;;
31660;SDS011;18267;52.234;7.444;2023-11-21T05:42:38;41.22;;;14.10;;
31660;SDS011;18267;52.234;7.444;2023-11-21T05:45:04;42.85;;;15.25;;
31660;SDS011;18267;52.234;7.444;2023-11-21T05:47:40;41.15;;;14.02;;
31660;SDS011;18267;52.234;7.444;2023-11-21T05:50:10;44.67;;;15.32;;
31660;SDS011;18267;52.234;7.444;2023-11-21T05:52:37;53.15;;;14.70;;
31660;SDS011;18267;52.234;7.444;2023-11-21T05:55:04;42.25;;;14.85;;
31660;SDS011;18267;52.234;7.444;2023-11-21T05:57:34;43.33;;;14.77;;
31660;SDS011;18267;52.234;7.444;2023-11-21T06:00:03;38.60;;;14.38;;
31660;SDS011;18267;52.234;7.444;2023-11-21T06:02:36;41.30;;;13.85;;
31660;SDS011;18267;52.234;7.444;2023-11-21T06:05:05;48.53;;;14.93;;
31660;SDS011;18267;52.234;7.444;2023-11-21T06:07:33;45.20;;;16.08;;
31660;SDS011;18267;52.234;7.444;2023-11-21T06:10:00;38.75;;;15.30;;
31660;SDS011;18267;52.234;7.444;2023-11-21T06:12:28;37.45;;;14.57;;
31660;SDS011;18267;52.234;7.444;2023-11-21T06:14:53;44.45;;;14.65;;
31660;SDS011;18267;52.234;7.444;2023-11-21T06:17:20;47.08;;;15.35;;
31660;SDS011;18267;52.234;7.444;2023-11-21T06:19:46;42.88;;;16.45;;
31660;SDS011;18267;52.234;7.444;2023-11-21T06:22:12;44.55;;;14.32;;
31660;SDS011;18267;52.234;7.444;2023-11-21T06:24:37;46.55;;;14.88;;
31660;SDS011;18267;52.234;7.444;2023-11-21T06:27:03;43.63;;;15.10;;
31660;SDS011;18267;52.234;7.444;2023-11-21T06:29:30;52.85;;;17.33;;
31660;SDS011;18267;52.234;7.444;2023-11-21T06:31:56;48.83;;;16.45;;
31660;SDS011;18267;52.234;7.444;2023-11-21T06:34:23;54.55;;;16.00;;
31660;SDS011;18267;52.234;7.444;2023-11-21T06:36:49;47.90;;;16.02;;
31660;SDS011;18267;52.234;7.444;2023-11-21T06:39:14;53.83;;;17.00;;
31660;SDS011;18267;52.234;7.444;2023-11-21T06:41:42;49.28;;;15.43;;
31660;SDS011;18267;52.234;7.444;2023-11-21T06:44:08;49.08;;;15.93;;
31660;SDS011;18267;52.234;7.444;2023-11-21T06:46:33;45.00;;;15.98;;
31660;SDS011;18267;52.234;7.444;2023-11-21T06:48:59;49.75;;;15.75;;
31660;SDS011;18267;52.234;7.444;2023-11-21T06:51:25;53.70;;;16.98;;
31660;SDS011;18267;52.234;7.444;2023-11-21T06:53:50;51.53;;;17.63;;
31660;SDS011;18267;52.234;7.444;2023-11-21T06:56:19;45.30;;;16.67;;
31660;SDS011;18267;52.234;7.444;2023-11-21T06:58:45;43.95;;;15.63;;
31660;SDS011;18267;52.234;7.444;2023-11-21T07:01:11;49.33;;;16.67;;
31660;SDS011;18267;52.234;7.444;2023-11-21T07:03:38;45.40;;;16.70;;
31660;SDS011;18267;52.234;7.444;2023-11-21T07:06:04;57.08;;;18.13;;
31660;SDS011;18267;52.234;7.444;2023-11-21T07:08:30;44.72;;;16.85;;
31660;SDS011;18267;52.234;7.444;2023-11-21T07:10:55;47.45;;;16.48;;
31660;SDS011;18267;52.234;7.444;2023-11-21T07:13:21;46.60;;;16.50;;
31660;SDS011;18267;52.234;7.444;2023-11-21T07:15:47;55.90;;;17.17;;
31660;SDS011;18267;52.234;7.444;2023-11-21T07:18:13;45.97;;;16.35;;
31660;SDS011;18267;52.234;7.444;2023-11-21T07:20:38;44.97;;;16.27;;
31660;SDS011;18267;52.234;7.444;2023-11-21T07:23:04;51.08;;;17.27;;
31660;SDS011;18267;52.234;7.444;2023-11-21T07:25:30;44.38;;;15.60;;
31660;SDS011;18267;52.234;7.444;2023-11-21T07:27:57;47.13;;;17.48;;
31660;SDS011;18267;52.234;7.444;2023-11-21T07:30:22;53.70;;;16.75;;
31660;SDS011;18267;52.234;7.444;2023-11-21T07:32:48;44.88;;;16.05;;
31660;SDS011;18267;52.234;7.444;2023-11-21T07:35:14;54.40;;;17.55;;
31660;SDS011;18267;52.234;7.444;2023-11-21T07:37:39;43.50;;;15.38;;
31660;SDS011;18267;52.234;7.444;2023-11-21T07:40:05;44.97;;;16.52;;
31660;SDS011;18267;52.234;7.444;2023-11-21T07:42:33;39.83;;;14.35;;
31660;SDS011;18267;52.234;7.444;2023-11-21T07:44:59;38.17;;;14.52;;
31660;SDS011;18267;52.234;7.444;2023-11-21T07:47:25;47.13;;;16.75;;
31660;SDS011;18267;52.234;7.444;2023-11-21T07:49:52;40.70;;;15.07;;
31660;SDS011;18267;52.234;7.444;2023-11-21T07:52:18;40.50;;;15.93;;
31660;SDS011;18267;52.234;7.444;2023-11-21T07:54:46;48.25;;;16.20;;
31660;SDS011;18267;52.234;7.444;2023-11-21T07:57:11;48.25;;;16.67;;
31660;SDS011;18267;52.234;7.444;2023-11-21T07:59:38;49.00;;;16.45;;
31660;SDS011;18267;52.234;7.444;2023-11-21T08:02:05;44.28;;;16.80;;
31660;SDS011;18267;52.234;7.444;2023-11-21T08:04:31;43.40;;;15.65;;
31660;SDS011;18267;52.234;7.444;2023-11-21T08:06:57;46.55;;;16.02;;
31660;SDS011;18267;52.234;7.444;2023-11-21T08:09:23;56.17;;;16.40;;
31660;SDS011;18267;52.234;7.444;2023-11-21T08:11:49;49.72;;;18.13;;
31660;SDS011;18267;52.234;7.444;2023-11-21T08:14:14;46.67;;;16.42;;
31660;SDS011;18267;52.234;7.444;2023-11-21T08:16:40;41.22;;;14.55;;
31660;SDS011;18267;52.234;7.444;2023-11-21T08:19:06;48.90;;;15.35;;
31660;SDS011;18267;52.234;7.444;2023-11-21T08:21:31;51.55;;;16.33;;
31660;SDS011;18267;52.234;7.444;2023-11-21T08:23:57;40.53;;;14.57;;
31660;SDS011;18267;52.234;7.444;2023-11-21T08:26:22;39.15;;;15.15;;
31660;SDS011;18267;52.234;7.444;2023-11-21T08:28:48;38.67;;;13.85;;
31660;SDS011;18267;52.234;7.444;2023-11-21T08:31:14;43.97;;;15.45;;
31660;SDS011;18267;52.234;7.444;2023-11-21T08:33:40;44.90;;;15.70;;
31660;SDS011;18267;52.234;7.444;2023-11-21T08:36:06;37.75;;;14.82;;
31660;SDS011;18267;52.234;7.444;2023-11-21T08:38:33;39.65;;;13.80;;
31660;SDS011;18267;52.234;7.444;2023-11-21T08:41:02;31.45;;;13.02;;
31660;SDS011;18267;52.234;7.444;2023-11-21T08:43:32;38.65;;;13.30;;
31660;SDS011;18267;52.234;7.444;2023-11-21T08:45:59;30.02;;;12.05;;
31660;SDS011;18267;52.234;7.444;2023-11-21T08:48:24;37.40;;;13.23;;
31660;SDS011;18267;52.234;7.444;2023-11-21T08:50:50;28.15;;;12.65;;
31660;SDS011;18267;52.234;7.444;2023-11-21T08:53:16;31.27;;;11.90;;
31660;SDS011;18267;52.234;7.444;2023-11-21T08:55:41;30.63;;;12.30;;
31660;SDS011;18267;52.234;7.444;2023-11-21T08:58:09;34.83;;;13.63;;
31660;SDS011;18267;52.234;7.444;2023-11-21T09:00:34;27.35;;;12.77;;
31660;SDS011;18267;52.234;7.444;2023-11-21T09:03:03;30.20;;;13.13;;
31660;SDS011;18267;52.234;7.444;2023-11-21T09:05:33;32.22;;;13.35;;
31660;SDS011;18267;52.234;7.444;2023-11-21T09:07:59;33.53;;;13.57;;
31660;SDS011;18267;52.234;7.444;2023-11-21T09:10:24;33.13;;;13.63;;
31660;SDS011;18267;52.234;7.444;2023-11-21T09:12:50;30.95;;;13.20;;
31660;SDS011;18267;52.234;7.444;2023-11-21T09:15:17;25.27;;;11.90;;
31660;SDS011;18267;52.234;7.444;2023-11-21T09:17:42;26.92;;;10.85;;
31660;SDS011;18267;52.234;7.444;2023-11-21T09:20:09;31.75;;;11.52;;
31660;SDS011;18267;52.234;7.444;2023-11-21T09:22:35;29.23;;;10.75;;
31660;SDS011;18267;52.234;7.444;2023-11-21T09:25:01;24.17;;;9.93;;
31660;SDS011;18267;52.234;7.444;2023-11-21T09:27:30;25.98;;;10.07;;
31660;SDS011;18267;52.234;7.444;2023-11-21T09:29:56;27.50;;;11.20;;
31660;SDS011;18267;52.234;7.444;2023-11-21T09:32:23;23.15;;;11.40;;
31660;SDS011;18267;52.234;7.444;2023-11-21T09:34:49;32.80;;;10.57;;
31660;SDS011;18267;52.234;7.444;2023-11-21T09:37:15;24.48;;;10.13;;
31660;SDS011;18267;52.234;7.444;2023-11-21T09:39:41;26.60;;;10.57;;
31660;SDS011;18267;52.234;7.444;2023-11-21T09:42:12;30.15;;;11.23;;
31660;SDS011;18267;52.234;7.444;2023-11-21T09:44:46;30.30;;;10.52;;
31660;SDS011;18267;52.234;7.444;2023-11-21T09:47:20;31.27;;;11.32;;
31660;SDS011;18267;52.234;7.444;2023-11-21T09:49:47;26.67;;;10.70;;
31660;SDS011;18267;52.234;7.444;2023-11-21T09:52:24;31.30;;;11.85;;
31660;SDS011;18267;52.234;7.444;2023-11-21T09:54:51;30.60;;;11.98;;
31660;SDS011;18267;52.234;7.444;2023-11-21T09:57:19;38.72;;;11.90;;
31660;SDS011;18267;52.234;7.444;2023-11-21T09:59:46;24.88;;;10.77;;
31660;SDS011;18267;52.234;7.444;2023-11-21T10:02:15;32.35;;;11.20;;
31660;SDS011;18267;52.234;7.444;2023-11-21T10:04:43;31.52;;;11.13;;
31660;SDS011;18267;52.234;7.444;2023-11-21T10:07:10;27.55;;;10.65;;
31660;SDS011;18267;52.234;7.444;2023-11-21T10:09:40;30.30;;;11.20;;
31660;SDS011;18267;52.234;7.444;2023-11-21T10:12:06;28.67;;;10.02;;
31660;SDS011;18267;52.234;7.444;2023-11-21T10:14:34;24.70;;;10.80;;
31660;SDS011;18267;52.234;7.444;2023-11-21T10:17:05;28.35;;;10.15;;
31660;SDS011;18267;52.234;7.444;2023-11-21T10:19:33;25.65;;;10.23;;
31660;SDS011;18267;52.234;7.444;2023-11-21T10:22:01;26.15;;;9.27;;
31660;SDS011;18267;52.234;7.444;2023-11-21T10:24:28;22.92;;;10.75;;
31660;SDS011;18267;52.234;7.444;2023-11-21T10:26:54;28.20;;;9.85;;
31660;SDS011;18267;52.234;7.444;2023-11-21T10:29:19;24.92;;;9.38;;
31660;SDS011;18267;52.234;7.444;2023-11-21T10:31:48;20.40;;;8.63;;
31660;SDS011;18267;52.234;7.444;2023-11-21T10:34:16;23.88;;;8.77;;
31660;SDS011;18267;52.234;7.444;2023-11-21T10:36:43;24.13;;;8.57;;
31660;SDS011;18267;52.234;7.444;2023-11-21T10:39:13;24.70;;;9.65;;
31660;SDS011;18267;52.234;7.444;2023-11-21T10:41:43;21.67;;;9.25;;
31660;SDS011;18267;52.234;7.444;2023-11-21T10:44:10;23.48;;;10.02;;
31660;SDS011;18267;52.234;7.444;2023-11-21T10:46:36;24.13;;;8.30;;
31660;SDS011;18267;52.234;7.444;2023-11-21T10:49:02;22.20;;;9.15;;
31660;SDS011;18267;52.234;7.444;2023-11-21T10:51:29;21.35;;;10.05;;
31660;SDS011;18267;52.234;7.444;2023-11-21T10:53:54;19.02;;;8.52;;
31660;SDS011;18267;52.234;7.444;2023-11-21T10:56:23;19.73;;;8.88;;
31660;SDS011;18267;52.234;7.444;2023-11-21T10:58:49;18.10;;;8.00;;
31660;SDS011;18267;52.234;7.444;2023-11-21T11:01:19;22.35;;;9.35;;
31660;SDS011;18267;52.234;7.444;2023-11-21T11:03:50;15.98;;;7.65;;
31660;SDS011;18267;52.234;7.444;2023-11-21T11:06:19;11.98;;;6.63;;
31660;SDS011;18267;52.234;7.444;2023-11-21T11:08:46;13.68;;;6.50;;
31660;SDS011;18267;52.234;7.444;2023-11-21T11:11:12;11.77;;;6.68;;
31660;SDS011;18267;52.234;7.444;2023-11-21T11:13:39;10.70;;;6.43;;
31660;SDS011;18267;52.234;7.444;2023-11-21T11:16:09;9.85;;;5.28;;
31660;SDS011;18267;52.234;7.444;2023-11-21T11:18:37;8.65;;;4.85;;
31660;SDS011;18267;52.234;7.444;2023-11-21T11:26:58;7.65;;;4.35;;
31660;SDS011;18267;52.234;7.444;2023-11-21T11:32:42;7.88;;;4.97;;
31660;SDS011;18267;52.234;7.444;2023-11-21T11:35:18;8.05;;;4.80;;
31660;SDS011;18267;52.234;7.444;2023-11-21T11:37:49;6.85;;;4.50;;
31660;SDS011;18267;52.234;7.444;2023-11-21T11:40:14;13.18;;;5.28;;
31660;SDS011;18267;52.234;7.444;2023-11-21T11:42:54;9.13;;;5.32;;
31660;SDS011;18267;52.234;7.444;2023-11-21T11:45:22;7.35;;;5.00;;
31660;SDS011;18267;52.234;7.444;2023-11-21T11:47:56;9.15;;;5.57;;
31660;SDS011;18267;52.234;7.444;2023-11-21T11:50:22;9.93;;;5.95;;
31660;SDS011;18267;52.234;7.444;2023-11-21T11:52:50;12.10;;;6.28;;
31660;SDS011;18267;52.234;7.444;2023-11-21T11:55:18;13.48;;;6.30;;
31660;SDS011;18267;52.234;7.444;2023-11-21T11:57:54;11.80;;;7.47;;
31660;SDS011;18267;52.234;7.444;2023-11-21T12:02:52;7.75;;;5.97;;
31660;SDS011;18267;52.234;7.444;2023-11-21T12:05:19;10.90;;;5.57;;
31660;SDS011;18267;52.234;7.444;2023-11-21T12:07:46;8.73;;;5.32;;
31660;SDS011;18267;52.234;7.444;2023-11-21T12:10:23;11.77;;;6.57;;
31660;SDS011;18267;52.234;7.444;2023-11-21T12:13:00;10.10;;;6.22;;
31660;SDS011;18267;52.234;7.444;2023-11-21T12:15:27;15.60;;;8.02;;
31660;SDS011;18267;52.234;7.444;2023-11-21T12:17:56;15.60;;;7.50;;
31660;SDS011;18267;52.234;7.444;2023-11-21T12:20:23;18.95;;;7.50;;
31660;SDS011;18267;52.234;7.444;2023-11-21T12:22:50;13.40;;;7.35;;
31660;SDS011;18267;52.234;7.444;2023-11-21T12:25:26;16.15;;;8.25;;
31660;SDS011;18267;52.234;7.444;2023-11-21T12:27:59;11.18;;;6.80;;
31660;SDS011;18267;52.234;7.444;2023-11-21T12:30:27;17.55;;;8.40;;
31660;SDS011;18267;52.234;7.444;2023-11-21T12:32:57;12.48;;;7.47;;
31660;SDS011;18267;52.234;7.444;2023-11-21T12:35:26;14.20;;;7.72;;
31660;SDS011;18267;52.234;7.444;2023-11-21T12:37:52;13.35;;;7.32;;
31660;SDS011;18267;52.234;7.444;2023-11-21T12:40:20;14.23;;;7.60;;
31660;SDS011;18267;52.234;7.444;2023-11-21T12:42:48;13.25;;;7.88;;
31660;SDS011;18267;52.234;7.444;2023-11-21T12:47:48;11.15;;;6.45;;
31660;SDS011;18267;52.234;7.444;2023-11-21T12:50:15;13.63;;;7.65;;
31660;SDS011;18267;52.234;7.444;2023-11-21T12:52:47;15.30;;;7.18;;
31660;SDS011;18267;52.234;7.444;2023-11-21T12:55:16;12.57;;;6.55;;
31660;SDS011;18267;52.234;7.444;2023-11-21T12:57:45;15.25;;;7.53;;
31660;SDS011;18267;52.234;7.444;2023-11-21T13:00:15;17.35;;;7.28;;
31660;SDS011;18267;52.234;7.444;2023-11-21T13:02:52;11.88;;;7.47;;
31660;SDS011;18267;52.234;7.444;2023-11-21T13:08:03;17.83;;;8.30;;
31660;SDS011;18267;52.234;7.444;2023-11-21T13:10:32;13.63;;;7.30;;
31660;SDS011;18267;52.234;7.444;2023-11-21T13:13:02;11.88;;;6.32;;
31660;SDS011;18267;52.234;7.444;2023-11-21T13:15:39;22.08;;;10.13;;
31660;SDS011;18267;52.234;7.444;2023-11-21T13:18:09;11.60;;;6.70;;
31660;SDS011;18267;52.234;7.444;2023-11-21T13:20:36;13.25;;;7.63;;
31660;SDS011;18267;52.234;7.444;2023-11-21T13:23:06;11.25;;;7.50;;
31660;SDS011;18267;52.234;7.444;2023-11-21T13:25:33;13.38;;;6.13;;
31660;SDS011;18267;52.234;7.444;2023-11-21T13:27:59;10.35;;;6.38;;
31660;SDS011;18267;52.234;7.444;2023-11-21T13:30:26;11.68;;;6.40;;
31660;SDS011;18267;52.234;7.444;2023-11-21T13:32:55;14.23;;;7.72;;
31660;SDS011;18267;52.234;7.444;2023-11-21T13:35:27;10.35;;;5.97;;
31660;SDS011;18267;52.234;7.444;2023-11-21T13:37:57;13.10;;;5.70;;
31660;SDS011;18267;52.234;7.444;2023-11-21T13:40:38;11.60;;;6.05;;
31660;SDS011;18267;52.234;7.444;2023-11-21T13:43:14;8.73;;;5.45;;
31660;SDS011;18267;52.234;7.444;2023-11-21T13:45:41;9.00;;;5.25;;
31660;SDS011;18267;52.234;7.444;2023-11-21T13:48:08;8.45;;;5.05;;
31660;SDS011;18267;52.234;7.444;2023-11-21T13:50:42;13.43;;;5.78;;
31660;SDS011;18267;52.234;7.444;2023-11-21T13:53:23;11.20;;;5.97;;
31660;SDS011;18267;52.234;7.444;2023-11-21T13:55:51;6.95;;;4.88;;
31660;SDS011;18267;52.234;7.444;2023-11-21T13:58:25;10.88;;;5.00;;
31660;SDS011;18267;52.234;7.444;2023-11-21T14:01:09;8.23;;;5.50;;
31660;SDS011;18267;52.234;7.444;2023-11-21T14:04:02;10.05;;;5.93;;
31660;SDS011;18267;52.234;7.444;2023-11-21T14:06:40;7.57;;;4.55;;
31660;SDS011;18267;52.234;7.444;2023-11-21T14:09:13;8.98;;;5.55;;
31660;SDS011;18267;52.234;7.444;2023-11-21T14:12:00;12.07;;;5.63;;
31660;SDS011;18267;52.234;7.444;2023-11-21T14:14:31;8.27;;;4.82;;
31660;SDS011;18267;52.234;7.444;2023-11-21T14:16:56;5.18;;;4.38;;
31660;SDS011;18267;52.234;7.444;2023-11-21T14:19:23;8.77;;;5.22;;
31660;SDS011;18267;52.234;7.444;2023-11-21T14:21:52;12.57;;;4.85;;
31660;SDS011;18267;52.234;7.444;2023-11-21T14:24:18;11.15;;;6.57;;
31660;SDS011;18267;52.234;7.444;2023-11-21T14:26:44;9.55;;;5.28;;
31660;SDS011;18267;52.234;7.444;2023-11-21T14:29:11;8.55;;;4.75;;
31660;SDS011;18267;52.234;7.444;2023-11-21T14:31:39;11.35;;;6.32;;
31660;SDS011;18267;52.234;7.444;2023-11-21T14:34:06;10.18;;;5.95;;
31660;SDS011;18267;52.234;7.444;2023-11-21T14:36:37;16.08;;;6.90;;
31660;SDS011;18267;52.234;7.444;2023-11-21T14:39:04;23.27;;;8.90;;
31660;SDS011;18267;52.234;7.444;2023-11-21T14:41:34;24.88;;;11.13;;
31660;SDS011;18267;52.234;7.444;2023-11-21T14:44:01;24.48;;;12.18;;